sensor_id;sensor_type;location;lat;lon;timestamp;temperature;humidity
39325;DHT22;25037;49.488;9.900;2024-01-30T00:02:01;1.70;68.10
39325;DHT22;25037;49.488;9.900;2024-01-30T00:04:29;1.70;68.10
39325;DHT22;25037;49.488;9.900;2024-01-30T00:06:56;1.70;68.10
39325;DHT22;25037;49.488;9.900;2024-01-30T00:09:24;1.70;68.20
39325;DHT22;25037;49.488;9.900;2024-01-30T00:11:51;1.70;68.20
39325;DHT22;25037;49.488;9.900;2024-01-30T00:14:18;1.60;68.20
39325;DHT22;25037;49.488;9.900;2024-01-30T00:16:45;1.60;68.10
39325;DHT22;25037;49.488;9.900;2024-01-30T00:19:13;1.60;68.00
39325;DHT22;25037;49.488;9.900;2024-01-30T00:21:40;1.60;68.10
39325;DHT22;25037;49.488;9.900;2024-01-30T00:24:07;1.60;68.10
39325;DHT22;25037;49.488;9.900;2024-01-30T00:26:35;1.50;68.00
39325;DHT22;25037;49.488;9.900;2024-01-30T00:29:02;1.50;68.10
39325;DHT22;25037;49.488;9.900;2024-01-30T00:31:29;1.50;68.10
39325;DHT22;25037;49.488;9.900;2024-01-30T00:33:57;1.50;68.00
39325;DHT22;25037;49.488;9.900;2024-01-30T00:36:24;1.50;68.00
39325;DHT22;25037;49.488;9.900;2024-01-30T00:38:51;1.50;68.10
39325;DHT22;25037;49.488;9.900;2024-01-30T00:41:19;1.50;68.10
39325;DHT22;25037;49.488;9.900;2024-01-30T00:43:47;1.50;68.10
39325;DHT22;25037;49.488;9.900;2024-01-30T00:46:15;1.50;68.10
39325;DHT22;25037;49.488;9.900;2024-01-30T00:48:43;1.50;68.20
39325;DHT22;25037;49.488;9.900;2024-01-30T00:51:10;1.50;68.10
39325;DHT22;25037;49.488;9.900;2024-01-30T00:53:38;1.50;68.10
39325;DHT22;25037;49.488;9.900;2024-01-30T00:56:05;1.50;68.10
39325;DHT22;25037;49.488;9.900;2024-01-30T00:58:32;1.50;68.10
39325;DHT22;25037;49.488;9.900;2024-01-30T01:00:59;1.40;68.10
39325;DHT22;25037;49.488;9.900;2024-01-30T01:03:27;1.40;68.20
39325;DHT22;25037;49.488;9.900;2024-01-30T01:05:54;1.40;68.20
39325;DHT22;25037;49.488;9.900;2024-01-30T01:08:21;1.50;68.20
39325;DHT22;25037;49.488;9.900;2024-01-30T01:10:48;1.50;68.30
39325;DHT22;25037;49.488;9.900;2024-01-30T01:13:15;1.40;68.20
39325;DHT22;25037;49.488;9.900;2024-01-30T01:15:43;1.50;68.30
39325;DHT22;25037;49.488;9.900;2024-01-30T01:18:10;1.40;68.30
39325;DHT22;25037;49.488;9.900;2024-01-30T01:20:37;1.40;68.30
39325;DHT22;25037;49.488;9.900;2024-01-30T01:23:05;1.40;68.30
39325;DHT22;25037;49.488;9.900;2024-01-30T01:25:32;1.40;68.20
39325;DHT22;25037;49.488;9.900;2024-01-30T01:27:59;1.40;68.20
39325;DHT22;25037;49.488;9.900;2024-01-30T01:30:28;1.40;68.30
39325;DHT22;25037;49.488;9.900;2024-01-30T01:32:56;1.40;68.30
39325;DHT22;25037;49.488;9.900;2024-01-30T01:35:24;1.40;68.30
39325;DHT22;25037;49.488;9.900;2024-01-30T01:37:52;1.40;68.30
39325;DHT22;25037;49.488;9.900;2024-01-30T01:40:26;1.40;68.30
39325;DHT22;25037;49.488;9.900;2024-01-30T01:42:55;1.40;68.30
39325;DHT22;25037;49.488;9.900;2024-01-30T01:45:22;1.40;68.30
39325;DHT22;25037;49.488;9.900;2024-01-30T01:47:52;1.40;68.30
39325;DHT22;25037;49.488;9.900;2024-01-30T01:50:21;1.40;68.30
39325;DHT22;25037;49.488;9.900;2024-01-30T01:52:50;1.40;68.20
39325;DHT22;25037;49.488;9.900;2024-01-30T01:55:20;1.40;68.20
39325;DHT22;25037;49.488;9.900;2024-01-30T01:57:53;1.30;68.30
39325;DHT22;25037;49.488;9.900;2024-01-30T02:00:21;1.30;68.30
39325;DHT22;25037;49.488;9.900;2024-01-30T02:02:49;1.30;68.30
39325;DHT22;25037;49.488;9.900;2024-01-30T02:05:17;1.40;68.40
39325;DHT22;25037;49.488;9.900;2024-01-30T02:07:44;1.40;68.40
39325;DHT22;25037;49.488;9.900;2024-01-30T02:10:12;1.40;68.40
39325;DHT22;25037;49.488;9.900;2024-01-30T02:12:40;1.40;68.40
39325;DHT22;25037;49.488;9.900;2024-01-30T02:15:07;1.50;68.30
39325;DHT22;25037;49.488;9.900;2024-01-30T02:17:35;1.50;68.30
39325;DHT22;25037;49.488;9.900;2024-01-30T02:20:02;1.50;68.20
39325;DHT22;25037;49.488;9.900;2024-01-30T02:22:32;1.50;68.20
39325;DHT22;25037;49.488;9.900;2024-01-30T02:25:00;1.50;68.20
39325;DHT22;25037;49.488;9.900;2024-01-30T02:27:28;1.50;68.20
39325;DHT22;25037;49.488;9.900;2024-01-30T02:29:55;1.50;68.20
39325;DHT22;25037;49.488;9.900;2024-01-30T02:32:22;1.50;68.20
39325;DHT22;25037;49.488;9.900;2024-01-30T02:34:49;1.50;68.20
39325;DHT22;25037;49.488;9.900;2024-01-30T02:37:17;1.50;68.20
39325;DHT22;25037;49.488;9.900;2024-01-30T02:39:45;1.50;68.20
39325;DHT22;25037;49.488;9.900;2024-01-30T02:42:12;1.50;68.30
39325;DHT22;25037;49.488;9.900;2024-01-30T02:44:39;1.50;68.20
39325;DHT22;25037;49.488;9.900;2024-01-30T02:47:06;1.50;68.20
39325;DHT22;25037;49.488;9.900;2024-01-30T02:49:33;1.50;68.20
39325;DHT22;25037;49.488;9.900;2024-01-30T02:52:01;1.50;68.20
39325;DHT22;25037;49.488;9.900;2024-01-30T02:54:28;1.50;68.20
39325;DHT22;25037;49.488;9.900;2024-01-30T02:56:57;1.50;68.20
39325;DHT22;25037;49.488;9.900;2024-01-30T02:59:25;1.50;68.20
39325;DHT22;25037;49.488;9.900;2024-01-30T03:01:52;1.40;68.30
39325;DHT22;25037;49.488;9.900;2024-01-30T03:04:19;1.50;68.40
39325;DHT22;25037;49.488;9.900;2024-01-30T03:06:46;1.50;68.40
39325;DHT22;25037;49.488;9.900;2024-01-30T03:09:17;1.50;68.40
39325;DHT22;25037;49.488;9.900;2024-01-30T03:11:45;1.50;68.40
39325;DHT22;25037;49.488;9.900;2024-01-30T03:14:12;1.50;68.40
39325;DHT22;25037;49.488;9.900;2024-01-30T03:16:40;1.50;68.40
39325;DHT22;25037;49.488;9.900;2024-01-30T03:19:07;1.50;68.40
39325;DHT22;25037;49.488;9.900;2024-01-30T03:21:36;1.50;68.40
39325;DHT22;25037;49.488;9.900;2024-01-30T03:24:04;1.50;68.40
39325;DHT22;25037;49.488;9.900;2024-01-30T03:26:31;1.40;68.40
39325;DHT22;25037;49.488;9.900;2024-01-30T03:28:58;1.50;68.40
39325;DHT22;25037;49.488;9.900;2024-01-30T03:31:25;1.50;68.40
39325;DHT22;25037;49.488;9.900;2024-01-30T03:33:53;1.40;68.40
39325;DHT22;25037;49.488;9.900;2024-01-30T03:36:20;1.40;68.40
39325;DHT22;25037;49.488;9.900;2024-01-30T03:38:48;1.40;68.40
39325;DHT22;25037;49.488;9.900;2024-01-30T03:41:15;1.40;68.40
39325;DHT22;25037;49.488;9.900;2024-01-30T03:43:42;1.40;68.40
39325;DHT22;25037;49.488;9.900;2024-01-30T03:46:11;1.40;68.30
39325;DHT22;25037;49.488;9.900;2024-01-30T03:48:38;1.40;68.30
39325;DHT22;25037;49.488;9.900;2024-01-30T03:51:06;1.40;68.30
39325;DHT22;25037;49.488;9.900;2024-01-30T03:53:33;1.40;68.30
39325;DHT22;25037;49.488;9.900;2024-01-30T03:56:00;1.40;68.30
39325;DHT22;25037;49.488;9.900;2024-01-30T03:58:28;1.40;68.30
39325;DHT22;25037;49.488;9.900;2024-01-30T04:00:55;1.30;68.30
39325;DHT22;25037;49.488;9.900;2024-01-30T04:03:22;1.40;68.30
39325;DHT22;25037;49.488;9.900;2024-01-30T04:05:49;1.30;68.30
39325;DHT22;25037;49.488;9.900;2024-01-30T04:08:16;1.40;68.30
39325;DHT22;25037;49.488;9.900;2024-01-30T04:10:44;1.30;68.30
39325;DHT22;25037;49.488;9.900;2024-01-30T04:13:11;1.30;68.30
39325;DHT22;25037;49.488;9.900;2024-01-30T04:15:39;1.30;68.30
39325;DHT22;25037;49.488;9.900;2024-01-30T04:18:06;1.30;68.30
39325;DHT22;25037;49.488;9.900;2024-01-30T04:20:33;1.30;68.40
39325;DHT22;25037;49.488;9.900;2024-01-30T04:23:00;1.30;68.40
39325;DHT22;25037;49.488;9.900;2024-01-30T04:25:27;1.30;68.40
39325;DHT22;25037;49.488;9.900;2024-01-30T04:27:54;1.30;68.40
39325;DHT22;25037;49.488;9.900;2024-01-30T04:30:21;1.30;68.40
39325;DHT22;25037;49.488;9.900;2024-01-30T04:32:48;1.30;68.40
39325;DHT22;25037;49.488;9.900;2024-01-30T04:35:15;1.30;68.40
39325;DHT22;25037;49.488;9.900;2024-01-30T04:37:43;1.30;68.30
39325;DHT22;25037;49.488;9.900;2024-01-30T04:40:11;1.30;68.30
39325;DHT22;25037;49.488;9.900;2024-01-30T04:42:38;1.30;68.30
39325;DHT22;25037;49.488;9.900;2024-01-30T04:45:05;1.30;68.30
39325;DHT22;25037;49.488;9.900;2024-01-30T04:47:33;1.30;68.30
39325;DHT22;25037;49.488;9.900;2024-01-30T04:50:01;1.30;68.40
39325;DHT22;25037;49.488;9.900;2024-01-30T04:52:29;1.20;68.40
39325;DHT22;25037;49.488;9.900;2024-01-30T04:54:56;1.30;68.40
39325;DHT22;25037;49.488;9.900;2024-01-30T04:57:23;1.30;68.40
39325;DHT22;25037;49.488;9.900;2024-01-30T04:59:51;1.20;68.40
39325;DHT22;25037;49.488;9.900;2024-01-30T05:02:18;1.20;68.40
39325;DHT22;25037;49.488;9.900;2024-01-30T05:04:45;1.20;68.30
39325;DHT22;25037;49.488;9.900;2024-01-30T05:07:13;1.20;68.30
39325;DHT22;25037;49.488;9.900;2024-01-30T05:09:40;1.20;68.20
39325;DHT22;25037;49.488;9.900;2024-01-30T05:12:08;1.20;68.20
39325;DHT22;25037;49.488;9.900;2024-01-30T05:14:35;1.20;68.20
39325;DHT22;25037;49.488;9.900;2024-01-30T05:17:02;1.20;68.30
39325;DHT22;25037;49.488;9.900;2024-01-30T05:19:30;1.20;68.30
39325;DHT22;25037;49.488;9.900;2024-01-30T05:21:57;1.20;68.30
39325;DHT22;25037;49.488;9.900;2024-01-30T05:24:24;1.10;68.30
39325;DHT22;25037;49.488;9.900;2024-01-30T05:26:54;1.20;68.30
39325;DHT22;25037;49.488;9.900;2024-01-30T05:29:21;1.10;68.30
39325;DHT22;25037;49.488;9.900;2024-01-30T05:31:49;1.10;68.30
39325;DHT22;25037;49.488;9.900;2024-01-30T05:34:16;1.10;68.30
39325;DHT22;25037;49.488;9.900;2024-01-30T05:36:43;1.10;68.30
39325;DHT22;25037;49.488;9.900;2024-01-30T05:39:10;1.10;68.30
39325;DHT22;25037;49.488;9.900;2024-01-30T05:41:38;1.10;68.30
39325;DHT22;25037;49.488;9.900;2024-01-30T05:44:05;1.00;68.30
39325;DHT22;25037;49.488;9.900;2024-01-30T05:46:33;1.00;68.30
39325;DHT22;25037;49.488;9.900;2024-01-30T05:49:00;1.00;68.30
39325;DHT22;25037;49.488;9.900;2024-01-30T05:51:28;1.00;68.30
39325;DHT22;25037;49.488;9.900;2024-01-30T05:53:55;1.10;68.30
39325;DHT22;25037;49.488;9.900;2024-01-30T05:56:22;1.00;68.30
39325;DHT22;25037;49.488;9.900;2024-01-30T05:58:49;1.00;68.30
39325;DHT22;25037;49.488;9.900;2024-01-30T06:01:17;1.00;68.40
39325;DHT22;25037;49.488;9.900;2024-01-30T06:03:44;1.10;68.30
39325;DHT22;25037;49.488;9.900;2024-01-30T06:06:12;1.00;68.40
39325;DHT22;25037;49.488;9.900;2024-01-30T06:08:38;1.00;68.40
39325;DHT22;25037;49.488;9.900;2024-01-30T06:11:09;1.10;68.30
39325;DHT22;25037;49.488;9.900;2024-01-30T06:13:37;1.00;68.20
39325;DHT22;25037;49.488;9.900;2024-01-30T06:16:04;1.00;68.20
39325;DHT22;25037;49.488;9.900;2024-01-30T06:18:38;1.00;68.30
39325;DHT22;25037;49.488;9.900;2024-01-30T06:21:05;1.00;68.30
39325;DHT22;25037;49.488;9.900;2024-01-30T06:23:35;1.00;68.30
39325;DHT22;25037;49.488;9.900;2024-01-30T06:26:03;1.00;68.30
39325;DHT22;25037;49.488;9.900;2024-01-30T06:28:30;1.00;68.30
39325;DHT22;25037;49.488;9.900;2024-01-30T06:30:57;1.00;68.30
39325;DHT22;25037;49.488;9.900;2024-01-30T06:33:24;1.00;68.40
39325;DHT22;25037;49.488;9.900;2024-01-30T06:35:52;1.00;68.30
39325;DHT22;25037;49.488;9.900;2024-01-30T06:38:19;1.00;68.30
39325;DHT22;25037;49.488;9.900;2024-01-30T06:40:46;1.00;68.30
39325;DHT22;25037;49.488;9.900;2024-01-30T06:43:14;1.00;68.30
39325;DHT22;25037;49.488;9.900;2024-01-30T06:45:41;1.00;68.30
39325;DHT22;25037;49.488;9.900;2024-01-30T06:48:09;1.00;68.40
39325;DHT22;25037;49.488;9.900;2024-01-30T06:50:37;1.00;68.40
39325;DHT22;25037;49.488;9.900;2024-01-30T06:53:04;1.00;68.40
39325;DHT22;25037;49.488;9.900;2024-01-30T06:55:31;1.00;68.30
39325;DHT22;25037;49.488;9.900;2024-01-30T06:57:59;1.00;68.40
39325;DHT22;25037;49.488;9.900;2024-01-30T07:00:26;1.10;68.40
39325;DHT22;25037;49.488;9.900;2024-01-30T07:02:53;1.10;68.40
39325;DHT22;25037;49.488;9.900;2024-01-30T07:05:21;1.10;68.40
39325;DHT22;25037;49.488;9.900;2024-01-30T07:07:49;1.10;68.40
39325;DHT22;25037;49.488;9.900;2024-01-30T07:10:16;1.20;68.40
39325;DHT22;25037;49.488;9.900;2024-01-30T07:12:44;1.20;68.40
39325;DHT22;25037;49.488;9.900;2024-01-30T07:15:11;1.20;68.40
39325;DHT22;25037;49.488;9.900;2024-01-30T07:17:41;1.20;68.50
39325;DHT22;25037;49.488;9.900;2024-01-30T07:20:09;1.30;68.50
39325;DHT22;25037;49.488;9.900;2024-01-30T07:22:40;1.30;68.50
39325;DHT22;25037;49.488;9.900;2024-01-30T07:25:08;1.30;68.40
39325;DHT22;25037;49.488;9.900;2024-01-30T07:27:36;1.40;68.40
39325;DHT22;25037;49.488;9.900;2024-01-30T07:30:04;1.40;68.30
39325;DHT22;25037;49.488;9.900;2024-01-30T07:32:31;1.50;68.30
39325;DHT22;25037;49.488;9.900;2024-01-30T07:34:59;1.50;68.30
39325;DHT22;25037;49.488;9.900;2024-01-30T07:37:35;1.50;68.30
39325;DHT22;25037;49.488;9.900;2024-01-30T07:40:03;1.60;68.40
39325;DHT22;25037;49.488;9.900;2024-01-30T07:42:31;1.60;68.40
39325;DHT22;25037;49.488;9.900;2024-01-30T07:44:58;1.70;68.40
39325;DHT22;25037;49.488;9.900;2024-01-30T07:47:26;1.80;68.40
39325;DHT22;25037;49.488;9.900;2024-01-30T07:49:53;1.80;68.40
39325;DHT22;25037;49.488;9.900;2024-01-30T07:52:21;1.90;68.30
39325;DHT22;25037;49.488;9.900;2024-01-30T07:54:49;1.90;68.40
39325;DHT22;25037;49.488;9.900;2024-01-30T07:57:16;2.00;68.40
39325;DHT22;25037;49.488;9.900;2024-01-30T07:59:45;2.10;68.40
39325;DHT22;25037;49.488;9.900;2024-01-30T08:02:12;2.20;68.40
39325;DHT22;25037;49.488;9.900;2024-01-30T08:04:40;2.30;68.40
39325;DHT22;25037;49.488;9.900;2024-01-30T08:07:08;2.40;68.40
39325;DHT22;25037;49.488;9.900;2024-01-30T08:09:35;2.40;68.40
39325;DHT22;25037;49.488;9.900;2024-01-30T08:12:03;2.50;68.40
39325;DHT22;25037;49.488;9.900;2024-01-30T08:14:30;2.60;68.40
39325;DHT22;25037;49.488;9.900;2024-01-30T08:16:57;2.70;68.30
39325;DHT22;25037;49.488;9.900;2024-01-30T08:19:25;2.80;68.20
39325;DHT22;25037;49.488;9.900;2024-01-30T08:21:52;2.80;68.30
39325;DHT22;25037;49.488;9.900;2024-01-30T08:24:19;2.90;68.30
39325;DHT22;25037;49.488;9.900;2024-01-30T08:26:46;3.00;68.30
39325;DHT22;25037;49.488;9.900;2024-01-30T08:29:13;3.10;68.20
39325;DHT22;25037;49.488;9.900;2024-01-30T08:31:41;3.20;68.10
39325;DHT22;25037;49.488;9.900;2024-01-30T08:34:08;3.30;68.10
39325;DHT22;25037;49.488;9.900;2024-01-30T08:36:36;3.40;68.10
39325;DHT22;25037;49.488;9.900;2024-01-30T08:39:03;3.50;68.00
39325;DHT22;25037;49.488;9.900;2024-01-30T08:41:32;3.60;68.00
39325;DHT22;25037;49.488;9.900;2024-01-30T08:44:00;3.80;68.00
39325;DHT22;25037;49.488;9.900;2024-01-30T08:46:27;3.80;67.90
39325;DHT22;25037;49.488;9.900;2024-01-30T08:48:54;3.90;67.90
39325;DHT22;25037;49.488;9.900;2024-01-30T08:51:21;4.00;67.80
39325;DHT22;25037;49.488;9.900;2024-01-30T08:53:49;4.20;67.70
39325;DHT22;25037;49.488;9.900;2024-01-30T08:56:16;4.30;67.60
39325;DHT22;25037;49.488;9.900;2024-01-30T09:02:05;4.60;67.50
39325;DHT22;25037;49.488;9.900;2024-01-30T09:04:39;4.80;67.40
39325;DHT22;25037;49.488;9.900;2024-01-30T09:07:08;4.90;67.30
39325;DHT22;25037;49.488;9.900;2024-01-30T09:09:40;5.00;67.20
39325;DHT22;25037;49.488;9.900;2024-01-30T09:12:10;5.20;67.20
39325;DHT22;25037;49.488;9.900;2024-01-30T09:14:39;5.30;67.20
39325;DHT22;25037;49.488;9.900;2024-01-30T09:17:08;5.40;67.10
39325;DHT22;25037;49.488;9.900;2024-01-30T09:19:45;5.60;67.10
39325;DHT22;25037;49.488;9.900;2024-01-30T09:22:14;5.70;67.00
39325;DHT22;25037;49.488;9.900;2024-01-30T09:24:48;5.80;67.00
39325;DHT22;25037;49.488;9.900;2024-01-30T09:27:15;6.10;66.80
39325;DHT22;25037;49.488;9.900;2024-01-30T09:29:43;6.20;66.70
39325;DHT22;25037;49.488;9.900;2024-01-30T09:32:13;6.30;66.60
39325;DHT22;25037;49.488;9.900;2024-01-30T09:34:40;6.30;66.60
39325;DHT22;25037;49.488;9.900;2024-01-30T09:37:10;6.40;66.50
39325;DHT22;25037;49.488;9.900;2024-01-30T09:39:38;6.50;66.50
39325;DHT22;25037;49.488;9.900;2024-01-30T09:45:00;6.70;66.30
39325;DHT22;25037;49.488;9.900;2024-01-30T09:47:31;6.90;66.20
39325;DHT22;25037;49.488;9.900;2024-01-30T09:49:58;7.00;66.10
39325;DHT22;25037;49.488;9.900;2024-01-30T09:52:26;7.20;66.00
39325;DHT22;25037;49.488;9.900;2024-01-30T09:54:54;7.30;65.80
39325;DHT22;25037;49.488;9.900;2024-01-30T09:57:22;7.30;65.80
39325;DHT22;25037;49.488;9.900;2024-01-30T09:59:49;7.50;65.70
39325;DHT22;25037;49.488;9.900;2024-01-30T10:02:18;7.60;65.60
39325;DHT22;25037;49.488;9.900;2024-01-30T10:04:53;7.80;65.30
39325;DHT22;25037;49.488;9.900;2024-01-30T10:07:20;7.80;65.10
39325;DHT22;25037;49.488;9.900;2024-01-30T10:09:48;7.90;65.20
39325;DHT22;25037;49.488;9.900;2024-01-30T10:12:16;8.00;65.00
39325;DHT22;25037;49.488;9.900;2024-01-30T10:14:43;8.10;64.90
39325;DHT22;25037;49.488;9.900;2024-01-30T10:17:12;8.20;64.80
39325;DHT22;25037;49.488;9.900;2024-01-30T10:19:53;8.30;64.70
39325;DHT22;25037;49.488;9.900;2024-01-30T10:22:20;8.40;64.70
39325;DHT22;25037;49.488;9.900;2024-01-30T10:24:48;8.40;64.70
39325;DHT22;25037;49.488;9.900;2024-01-30T10:27:16;8.50;64.70
39325;DHT22;25037;49.488;9.900;2024-01-30T10:29:43;8.60;64.60
39325;DHT22;25037;49.488;9.900;2024-01-30T10:32:10;8.60;64.50
39325;DHT22;25037;49.488;9.900;2024-01-30T10:34:37;8.70;64.40
39325;DHT22;25037;49.488;9.900;2024-01-30T10:37:09;8.70;64.30
39325;DHT22;25037;49.488;9.900;2024-01-30T10:39:44;8.80;64.10
39325;DHT22;25037;49.488;9.900;2024-01-30T10:42:13;8.90;64.10
39325;DHT22;25037;49.488;9.900;2024-01-30T10:44:44;8.90;64.10
39325;DHT22;25037;49.488;9.900;2024-01-30T10:47:19;9.00;64.00
39325;DHT22;25037;49.488;9.900;2024-01-30T10:49:52;9.10;63.90
39325;DHT22;25037;49.488;9.900;2024-01-30T10:52:23;9.20;63.80
39325;DHT22;25037;49.488;9.900;2024-01-30T10:54:56;9.30;63.60
39325;DHT22;25037;49.488;9.900;2024-01-30T10:57:29;9.30;63.50
39325;DHT22;25037;49.488;9.900;2024-01-30T10:59:58;9.40;63.50
39325;DHT22;25037;49.488;9.900;2024-01-30T11:02:26;9.40;63.30
39325;DHT22;25037;49.488;9.900;2024-01-30T11:04:58;9.50;63.30
39325;DHT22;25037;49.488;9.900;2024-01-30T11:07:35;9.50;63.10
39325;DHT22;25037;49.488;9.900;2024-01-30T11:10:05;9.60;63.10
39325;DHT22;25037;49.488;9.900;2024-01-30T11:12:39;9.60;63.00
39325;DHT22;25037;49.488;9.900;2024-01-30T11:15:17;9.70;63.00
39325;DHT22;25037;49.488;9.900;2024-01-30T11:20:29;9.80;62.80
39325;DHT22;25037;49.488;9.900;2024-01-30T11:23:06;9.90;62.60
39325;DHT22;25037;49.488;9.900;2024-01-30T11:25:34;10.00;62.70
39325;DHT22;25037;49.488;9.900;2024-01-30T11:28:03;10.10;62.70
39325;DHT22;25037;49.488;9.900;2024-01-30T11:30:32;10.10;62.70
39325;DHT22;25037;49.488;9.900;2024-01-30T11:33:09;10.20;62.40
39325;DHT22;25037;49.488;9.900;2024-01-30T11:35:42;10.30;62.30
39325;DHT22;25037;49.488;9.900;2024-01-30T11:38:13;10.40;62.30
39325;DHT22;25037;49.488;9.900;2024-01-30T11:40:42;10.50;62.10
39325;DHT22;25037;49.488;9.900;2024-01-30T11:43:13;10.50;62.20
39325;DHT22;25037;49.488;9.900;2024-01-30T11:45:43;10.70;62.10
39325;DHT22;25037;49.488;9.900;2024-01-30T11:48:12;10.70;62.00
39325;DHT22;25037;49.488;9.900;2024-01-30T11:50:43;10.90;61.90
39325;DHT22;25037;49.488;9.900;2024-01-30T11:53:13;11.00;61.70
39325;DHT22;25037;49.488;9.900;2024-01-30T11:55:40;11.10;61.50
39325;DHT22;25037;49.488;9.900;2024-01-30T11:58:07;11.30;61.20
39325;DHT22;25037;49.488;9.900;2024-01-30T12:01:06;11.30;61.00
39325;DHT22;25037;49.488;9.900;2024-01-30T12:03:34;11.40;60.80
39325;DHT22;25037;49.488;9.900;2024-01-30T12:06:02;11.40;61.00
39325;DHT22;25037;49.488;9.900;2024-01-30T12:08:30;11.40;61.10
39325;DHT22;25037;49.488;9.900;2024-01-30T12:10:57;11.50;61.10
39325;DHT22;25037;49.488;9.900;2024-01-30T12:13:33;11.60;61.00
39325;DHT22;25037;49.488;9.900;2024-01-30T12:16:02;11.70;60.90
39325;DHT22;25037;49.488;9.900;2024-01-30T12:18:29;11.80;60.80
39325;DHT22;25037;49.488;9.900;2024-01-30T12:20:59;11.80;60.50
39325;DHT22;25037;49.488;9.900;2024-01-30T12:23:28;11.80;60.30
39325;DHT22;25037;49.488;9.900;2024-01-30T12:25:57;11.80;60.40
39325;DHT22;25037;49.488;9.900;2024-01-30T12:28:30;11.80;60.40
39325;DHT22;25037;49.488;9.900;2024-01-30T12:31:01;11.80;60.30
39325;DHT22;25037;49.488;9.900;2024-01-30T12:33:30;11.80;60.30
39325;DHT22;25037;49.488;9.900;2024-01-30T12:36:01;11.90;60.50
39325;DHT22;25037;49.488;9.900;2024-01-30T12:38:30;12.00;60.50
39325;DHT22;25037;49.488;9.900;2024-01-30T12:40:57;12.10;60.40
39325;DHT22;25037;49.488;9.900;2024-01-30T12:43:32;12.20;60.40
39325;DHT22;25037;49.488;9.900;2024-01-30T12:46:05;12.40;60.30
39325;DHT22;25037;49.488;9.900;2024-01-30T12:48:33;12.50;60.10
39325;DHT22;25037;49.488;9.900;2024-01-30T12:51:01;12.70;60.00
39325;DHT22;25037;49.488;9.900;2024-01-30T12:53:33;12.70;59.80
39325;DHT22;25037;49.488;9.900;2024-01-30T12:56:04;12.80;59.70
39325;DHT22;25037;49.488;9.900;2024-01-30T12:58:31;13.00;59.60
39325;DHT22;25037;49.488;9.900;2024-01-30T13:01:03;13.00;59.50
39325;DHT22;25037;49.488;9.900;2024-01-30T13:03:31;13.20;59.40
39325;DHT22;25037;49.488;9.900;2024-01-30T13:06:01;13.20;59.20
39325;DHT22;25037;49.488;9.900;2024-01-30T13:08:31;13.30;58.80
39325;DHT22;25037;49.488;9.900;2024-01-30T13:10:58;13.30;58.20
39325;DHT22;25037;49.488;9.900;2024-01-30T13:13:25;13.40;58.00
39325;DHT22;25037;49.488;9.900;2024-01-30T13:15:52;13.40;57.90
39325;DHT22;25037;49.488;9.900;2024-01-30T13:18:30;13.40;57.80
39325;DHT22;25037;49.488;9.900;2024-01-30T13:21:13;13.40;57.20
39325;DHT22;25037;49.488;9.900;2024-01-30T13:23:47;13.40;57.00
39325;DHT22;25037;49.488;9.900;2024-01-30T13:26:14;13.40;56.60
39325;DHT22;25037;49.488;9.900;2024-01-30T13:28:41;13.40;56.20
39325;DHT22;25037;49.488;9.900;2024-01-30T13:31:08;13.50;56.10
39325;DHT22;25037;49.488;9.900;2024-01-30T13:33:35;13.50;56.00
39325;DHT22;25037;49.488;9.900;2024-01-30T13:36:03;13.50;55.70
39325;DHT22;25037;49.488;9.900;2024-01-30T13:38:30;13.50;55.20
39325;DHT22;25037;49.488;9.900;2024-01-30T13:40:57;13.50;54.90
39325;DHT22;25037;49.488;9.900;2024-01-30T13:43:25;13.50;54.70
39325;DHT22;25037;49.488;9.900;2024-01-30T13:45:53;13.60;54.60
39325;DHT22;25037;49.488;9.900;2024-01-30T13:48:20;13.60;54.50
39325;DHT22;25037;49.488;9.900;2024-01-30T13:50:47;13.60;54.30
39325;DHT22;25037;49.488;9.900;2024-01-30T13:53:16;13.60;54.10
39325;DHT22;25037;49.488;9.900;2024-01-30T13:55:43;13.60;54.10
39325;DHT22;25037;49.488;9.900;2024-01-30T13:58:11;13.60;53.80
39325;DHT22;25037;49.488;9.900;2024-01-30T14:00:39;13.60;53.70
39325;DHT22;25037;49.488;9.900;2024-01-30T14:03:07;13.60;53.40
39325;DHT22;25037;49.488;9.900;2024-01-30T14:05:34;13.60;53.50
39325;DHT22;25037;49.488;9.900;2024-01-30T14:08:02;13.60;53.40
39325;DHT22;25037;49.488;9.900;2024-01-30T14:10:29;13.60;53.30
39325;DHT22;25037;49.488;9.900;2024-01-30T14:12:57;13.60;53.20
39325;DHT22;25037;49.488;9.900;2024-01-30T14:15:24;13.60;53.10
39325;DHT22;25037;49.488;9.900;2024-01-30T14:17:56;13.50;53.00
39325;DHT22;25037;49.488;9.900;2024-01-30T14:20:26;13.50;53.10
39325;DHT22;25037;49.488;9.900;2024-01-30T14:22:54;13.50;53.00
39325;DHT22;25037;49.488;9.900;2024-01-30T14:25:23;13.40;53.00
39325;DHT22;25037;49.488;9.900;2024-01-30T14:27:51;13.40;53.00
39325;DHT22;25037;49.488;9.900;2024-01-30T14:30:19;13.40;53.00
39325;DHT22;25037;49.488;9.900;2024-01-30T14:32:46;13.30;53.00
39325;DHT22;25037;49.488;9.900;2024-01-30T14:35:15;13.30;53.00
39325;DHT22;25037;49.488;9.900;2024-01-30T14:37:42;13.30;53.10
39325;DHT22;25037;49.488;9.900;2024-01-30T14:40:10;13.20;53.10
39325;DHT22;25037;49.488;9.900;2024-01-30T14:42:37;13.20;53.20
39325;DHT22;25037;49.488;9.900;2024-01-30T14:45:06;13.10;53.10
39325;DHT22;25037;49.488;9.900;2024-01-30T14:47:34;13.10;53.10
39325;DHT22;25037;49.488;9.900;2024-01-30T14:50:06;13.00;53.10
39325;DHT22;25037;49.488;9.900;2024-01-30T14:52:36;13.00;53.20
39325;DHT22;25037;49.488;9.900;2024-01-30T14:55:05;12.90;53.30
39325;DHT22;25037;49.488;9.900;2024-01-30T14:57:33;12.90;53.30
39325;DHT22;25037;49.488;9.900;2024-01-30T15:00:02;12.80;53.40
39325;DHT22;25037;49.488;9.900;2024-01-30T15:02:30;12.80;53.30
39325;DHT22;25037;49.488;9.900;2024-01-30T15:04:57;12.80;53.40
39325;DHT22;25037;49.488;9.900;2024-01-30T15:07:25;12.70;53.50
39325;DHT22;25037;49.488;9.900;2024-01-30T15:10:05;12.70;53.50
39325;DHT22;25037;49.488;9.900;2024-01-30T15:12:33;12.70;53.70
39325;DHT22;25037;49.488;9.900;2024-01-30T15:15:00;12.60;53.70
39325;DHT22;25037;49.488;9.900;2024-01-30T15:17:27;12.60;53.90
39325;DHT22;25037;49.488;9.900;2024-01-30T15:19:55;12.50;53.90
39325;DHT22;25037;49.488;9.900;2024-01-30T15:22:22;12.40;53.90
39325;DHT22;25037;49.488;9.900;2024-01-30T15:24:50;12.30;54.00
39325;DHT22;25037;49.488;9.900;2024-01-30T15:27:18;12.30;54.10
39325;DHT22;25037;49.488;9.900;2024-01-30T15:32:50;12.20;54.30
39325;DHT22;25037;49.488;9.900;2024-01-30T15:35:18;12.10;54.50
39325;DHT22;25037;49.488;9.900;2024-01-30T15:40:28;12.00;54.60
39325;DHT22;25037;49.488;9.900;2024-01-30T15:42:55;12.00;54.70
39325;DHT22;25037;49.488;9.900;2024-01-30T15:45:22;11.90;54.80
39325;DHT22;25037;49.488;9.900;2024-01-30T15:47:52;11.90;54.90
39325;DHT22;25037;49.488;9.900;2024-01-30T15:50:20;11.80;55.00
39325;DHT22;25037;49.488;9.900;2024-01-30T15:52:47;11.80;55.10
39325;DHT22;25037;49.488;9.900;2024-01-30T15:55:14;11.70;55.20
39325;DHT22;25037;49.488;9.900;2024-01-30T15:57:42;11.70;55.40
39325;DHT22;25037;49.488;9.900;2024-01-30T16:00:14;11.70;55.50
39325;DHT22;25037;49.488;9.900;2024-01-30T16:02:41;11.60;55.60
39325;DHT22;25037;49.488;9.900;2024-01-30T16:05:09;11.60;55.80